Time;durP1;ratioP1;P1;durP2;ratioP2;P2;SDS_P1;SDS_P2;PMS_P1;PMS_P2;Temp;Humidity;BMP_temperature;BMP_pressure;BME280_temperature;BME280_humidity;BME280_pressure;Samples;Min_cycle;Max_cycle;Signal;HPM_P1;HPM_P2
2021/01/30 00:01:32;;;;;;;0.50;0.40;;;;;;;;;;5072936;28;20028;-55
2021/01/30 00:03:59;;;;;;;0.70;0.50;;;;;;;;;;5072880;28;20525;-54
2021/01/30 00:06:25;;;;;;;0.87;0.40;;;;;;;;;;5072772;28;20036;-54
2021/01/30 00:08:52;;;;;;;1.17;0.50;;;;;;;;;;5073151;28;20513;-54
2021/01/30 00:11:19;;;;;;;1.40;0.53;;;;;;;;;;5072934;28;20498;-54
2021/01/30 00:13:46;;;;;;;3.07;0.67;;;;;;;;;;5072820;28;20412;-54
2021/01/30 00:16:15;;;;;;;0.93;0.50;;;;;;;;;;5072651;28;20414;-54
2021/01/30 00:18:42;;;;;;;3.07;0.60;;;;;;;;;;5072666;28;20475;-54
2021/01/30 00:21:11;;;;;;;0.90;0.50;;;;;;;;;;5071985;28;20025;-54
2021/01/30 00:23:37;;;;;;;0.87;0.57;;;;;;;;;;5072689;28;20094;-54
2021/01/30 00:26:04;;;;;;;0.73;0.50;;;;;;;;;;5072661;28;20028;-54
2021/01/30 00:28:31;;;;;;;0.63;0.40;;;;;;;;;;5072958;28;20103;-55
2021/01/30 00:30:58;;;;;;;0.73;0.40;;;;;;;;;;5072493;28;20036;-54
2021/01/30 00:33:24;;;;;;;3.30;0.70;;;;;;;;;;5072591;28;20024;-54
2021/01/30 00:35:51;;;;;;;0.93;0.50;;;;;;;;;;5072663;28;20029;-54
2021/01/30 00:38:18;;;;;;;0.60;0.40;;;;;;;;;;5072476;28;20418;-54
2021/01/30 00:40:45;;;;;;;0.67;0.40;;;;;;;;;;5072637;28;20120;-54
2021/01/30 00:43:11;;;;;;;2.97;0.50;;;;;;;;;;5072403;28;20086;-54
2021/01/30 00:45:38;;;;;;;1.87;0.33;;;;;;;;;;5072383;28;20021;-54
2021/01/30 00:48:05;;;;;;;4.00;0.60;;;;;;;;;;5072509;28;20089;-54
2021/01/30 00:50:32;;;;;;;1.87;0.50;;;;;;;;;;5072352;28;20040;-55
2021/01/30 00:52:59;;;;;;;1.07;0.60;;;;;;;;;;5054708;28;20044;-54
2021/01/30 00:55:26;;;;;;;2.40;0.80;;;;;;;;;;5072223;28;20021;-54
2021/01/30 00:57:52;;;;;;;1.63;0.90;;;;;;;;;;5072357;28;20016;-54
2021/01/30 01:00:21;;;;;;;7.57;1.87;;;;;;;;;;5072422;28;20025;-54
2021/01/30 01:02:48;;;;;;;1.67;1.10;;;;;;;;;;5072266;28;20020;-54
2021/01/30 01:05:16;;;;;;;2.77;1.40;;;;;;;;;;5072281;28;20071;-54
2021/01/30 01:07:43;;;;;;;2.63;0.90;;;;;;;;;;5072130;28;20024;-54
2021/01/30 01:10:10;;;;;;;5.07;1.03;;;;;;;;;;5054216;28;20572;-54
2021/01/30 01:12:37;;;;;;;1.80;0.50;;;;;;;;;;5072120;28;20031;-54
2021/01/30 01:15:06;;;;;;;1.40;0.70;;;;;;;;;;5072100;28;20032;-54
2021/01/30 01:17:32;;;;;;;2.33;1.00;;;;;;;;;;5072009;28;20024;-54
2021/01/30 01:19:59;;;;;;;4.03;1.30;;;;;;;;;;5072148;28;20024;-54
2021/01/30 01:22:26;;;;;;;0.83;0.53;;;;;;;;;;5072233;28;20024;-54
2021/01/30 01:24:53;;;;;;;1.03;0.50;;;;;;;;;;5072081;28;20028;-54
2021/01/30 01:27:19;;;;;;;1.30;0.80;;;;;;;;;;5072054;28;20028;-54
2021/01/30 01:29:48;;;;;;;4.07;0.90;;;;;;;;;;5072276;28;20088;-54
2021/01/30 01:32:15;;;;;;;2.27;1.00;;;;;;;;;;5073181;28;20021;-54
2021/01/30 01:34:43;;;;;;;0.40;0.40;;;;;;;;;;5075639;28;20428;-54
2021/01/30 01:37:10;;;;;;;0.77;0.60;;;;;;;;;;5075557;28;20032;-53
2021/01/30 01:39:37;;;;;;;0.70;0.33;;;;;;;;;;5075679;28;20029;-53
2021/01/30 01:42:04;;;;;;;0.50;0.50;;;;;;;;;;5075518;28;20155;-54
2021/01/30 01:44:31;;;;;;;1.50;0.50;;;;;;;;;;5075544;28;20094;-54
2021/01/30 01:46:57;;;;;;;0.57;0.43;;;;;;;;;;5075600;28;20100;-54
2021/01/30 01:49:28;;;;;;;1.63;0.60;;;;;;;;;;5075232;28;20035;-54
2021/01/30 01:52:00;;;;;;;0.40;0.30;;;;;;;;;;5075481;28;20044;-53
2021/01/30 01:54:28;;;;;;;0.77;0.43;;;;;;;;;;5075298;28;20028;-53
2021/01/30 01:56:56;;;;;;;1.00;0.80;;;;;;;;;;5075438;28;20032;-55
2021/01/30 01:59:23;;;;;;;2.00;0.70;;;;;;;;;;5075124;28;20032;-55
2021/01/30 02:01:50;;;;;;;1.87;1.10;;;;;;;;;;5075148;28;20078;-55
2021/01/30 02:04:19;;;;;;;2.50;1.37;;;;;;;;;;5075008;28;20046;-55
2021/01/30 02:06:46;;;;;;;1.57;0.80;;;;;;;;;;5074900;28;20052;-55
2021/01/30 02:09:17;;;;;;;2.23;1.20;;;;;;;;;;5075276;28;20102;-54
2021/01/30 02:11:49;;;;;;;4.80;1.50;;;;;;;;;;5075093;28;20029;-54
2021/01/30 02:14:16;;;;;;;2.73;1.10;;;;;;;;;;5074902;28;20031;-55
2021/01/30 02:16:47;;;;;;;3.70;1.07;;;;;;;;;;5074774;28;20047;-55
2021/01/30 02:19:26;;;;;;;3.80;1.43;;;;;;;;;;5074873;28;20032;-55
2021/01/30 02:22:08;;;;;;;9.23;1.20;;;;;;;;;;5074771;28;20415;-54
2021/01/30 02:24:35;;;;;;;1.57;0.80;;;;;;;;;;5074740;28;20032;-55
2021/01/30 02:27:04;;;;;;;5.03;1.47;;;;;;;;;;5074625;28;20024;-55
2021/01/30 02:29:49;;;;;;;6.50;1.47;;;;;;;;;;5074958;28;20140;-55
2021/01/30 02:32:45;;;;;;;4.75;1.33;;;;;;;;;;5074690;28;20495;-55
2021/01/30 02:35:12;;;;;;;2.73;1.30;;;;;;;;;;4986198;28;20043;-55
2021/01/30 02:37:51;;;;;;;6.33;1.53;;;;;;;;;;5074647;28;20028;-54
2021/01/30 02:40:20;;;;;;;3.00;1.07;;;;;;;;;;5074322;28;20016;-55
2021/01/30 02:43:07;;;;;;;2.57;1.30;;;;;;;;;;5074311;28;20033;-53
2021/01/30 02:45:35;;;;;;;3.93;1.00;;;;;;;;;;5073903;28;20080;-53
2021/01/30 02:48:07;;;;;;;9.13;1.43;;;;;;;;;;5074231;28;20064;-53
2021/01/30 02:50:46;;;;;;;6.13;1.50;;;;;;;;;;5074272;28;20115;-53
2021/01/30 02:53:14;;;;;;;8.10;2.43;;;;;;;;;;5074354;28;20032;-53
2021/01/30 02:55:42;;;;;;;7.67;1.93;;;;;;;;;;5073999;28;20031;-53
2021/01/30 02:58:10;;;;;;;3.37;1.50;;;;;;;;;;5074086;28;20024;-53
2021/01/30 03:00:38;;;;;;;5.87;1.50;;;;;;;;;;5056084;28;20082;-54
2021/01/30 03:03:04;;;;;;;6.70;1.20;;;;;;;;;;5074087;28;20104;-53
2021/01/30 03:05:31;;;;;;;6.37;1.80;;;;;;;;;;5073821;28;20450;-53
2021/01/30 03:08:16;;;;;;;5.07;1.83;;;;;;;;;;5073771;28;20036;-53
2021/01/30 03:10:43;;;;;;;5.45;1.67;;;;;;;;;;5073720;28;20036;-53
2021/01/30 03:13:27;;;;;;;6.77;3.10;;;;;;;;;;5055866;28;20525;-53
2021/01/30 03:16:02;;;;;;;4.90;1.87;;;;;;;;;;5073718;28;20032;-54
2021/01/30 03:18:34;;;;;;;4.03;2.13;;;;;;;;;;5073510;28;20116;-53
2021/01/30 03:21:01;;;;;;;3.23;1.57;;;;;;;;;;5073554;28;20039;-53
2021/01/30 03:23:28;;;;;;;4.30;1.90;;;;;;;;;;5073564;28;20021;-53
2021/01/30 03:25:56;;;;;;;4.23;1.40;;;;;;;;;;5073373;28;20032;-53
2021/01/30 03:28:23;;;;;;;4.43;2.03;;;;;;;;;;5073854;28;20035;-54
2021/01/30 03:30:49;;;;;;;5.57;1.93;;;;;;;;;;5073361;28;20119;-53
2021/01/30 03:33:16;;;;;;;6.37;1.87;;;;;;;;;;5073367;28;20052;-53
2021/01/30 03:35:43;;;;;;;4.50;2.07;;;;;;;;;;5073298;28;20028;-53
2021/01/30 03:38:10;;;;;;;6.50;2.10;;;;;;;;;;5073281;28;20074;-53
2021/01/30 03:40:39;;;;;;;5.63;2.30;;;;;;;;;;5073263;28;20021;-53
2021/01/30 03:43:06;;;;;;;3.93;1.60;;;;;;;;;;5073083;28;20039;-53
2021/01/30 03:45:33;;;;;;;4.57;1.87;;;;;;;;;;5073067;28;20093;-53
2021/01/30 03:48:00;;;;;;;5.70;1.90;;;;;;;;;;5073227;28;20032;-53
2021/01/30 03:50:27;;;;;;;4.67;1.60;;;;;;;;;;5073125;28;20090;-53
2021/01/30 03:52:54;;;;;;;7.27;1.73;;;;;;;;;;5073107;28;20032;-53
2021/01/30 03:55:22;;;;;;;4.67;1.63;;;;;;;;;;5072207;28;20036;-53
2021/01/30 03:57:49;;;;;;;3.93;1.73;;;;;;;;;;5072939;28;20029;-53
2021/01/30 04:00:18;;;;;;;7.03;2.07;;;;;;;;;;5073094;28;20108;-53
2021/01/30 04:02:45;;;;;;;6.87;1.90;;;;;;;;;;5073019;28;20021;-53
2021/01/30 04:05:13;;;;;;;6.10;1.90;;;;;;;;;;5073317;28;20024;-53
2021/01/30 04:07:40;;;;;;;7.10;1.97;;;;;;;;;;5072761;28;20028;-53
2021/01/30 04:10:07;;;;;;;8.30;1.57;;;;;;;;;;5072781;28;20067;-53
2021/01/30 04:12:35;;;;;;;5.57;1.87;;;;;;;;;;5072796;28;20430;-53
2021/01/30 04:15:01;;;;;;;10.33;3.00;;;;;;;;;;5072676;28;20024;-54
2021/01/30 04:17:28;;;;;;;6.33;2.47;;;;;;;;;;5072849;28;20031;-53
2021/01/30 04:19:55;;;;;;;12.23;2.03;;;;;;;;;;5072625;28;20085;-53
2021/01/30 04:22:22;;;;;;;4.07;2.10;;;;;;;;;;5072786;28;20093;-53
2021/01/30 04:24:48;;;;;;;10.73;1.97;;;;;;;;;;5072565;28;20032;-53
2021/01/30 04:27:15;;;;;;;8.23;2.20;;;;;;;;;;5072780;28;20028;-53
2021/01/30 04:29:45;;;;;;;7.93;2.30;;;;;;;;;;5072659;28;20058;-53
2021/01/30 04:32:12;;;;;;;7.00;2.43;;;;;;;;;;5072558;28;20392;-53
2021/01/30 04:34:39;;;;;;;5.90;2.00;;;;;;;;;;5072523;28;20433;-54
2021/01/30 04:37:06;;;;;;;5.07;1.90;;;;;;;;;;5072563;28;20060;-53
2021/01/30 04:39:33;;;;;;;7.77;2.50;;;;;;;;;;5072484;28;20468;-53
2021/01/30 04:42:25;;;;;;;7.10;1.80;;;;;;;;;;5072533;28;20029;-53
2021/01/30 04:45:08;;;;;;;5.93;2.70;;;;;;;;;;5034761;28;20037;-53
2021/01/30 04:47:42;;;;;;;3.93;1.50;;;;;;;;;;5072444;28;20029;-53
2021/01/30 04:50:26;;;;;;;4.65;1.50;;;;;;;;;;5072344;28;20041;-54
2021/01/30 04:52:59;;;;;;;4.17;1.60;;;;;;;;;;5072552;28;20236;-55
2021/01/30 04:55:35;;;;;;;5.97;1.93;;;;;;;;;;5072235;28;20016;-55
2021/01/30 04:58:08;;;;;;;4.40;1.90;;;;;;;;;;5072328;28;20029;-54
2021/01/30 05:00:48;;;;;;;7.40;1.80;;;;;;;;;;5072248;28;20029;-55
2021/01/30 05:03:33;;;;;;;11.20;2.10;;;;;;;;;;5072371;28;20029;-54
2021/01/30 05:06:13;;;;;;;6.82;1.77;;;;;;;;;;5072318;28;20059;-54
2021/01/30 05:08:44;;;;;;;7.00;1.50;;;;;;;;;;5075762;28;20020;-55
2021/01/30 05:11:14;;;;;;;5.53;1.57;;;;;;;;;;5076111;28;20081;-54
2021/01/30 05:13:45;;;;;;;6.63;1.70;;;;;;;;;;5076053;28;20029;-54
2021/01/30 05:16:17;;;;;;;4.97;1.77;;;;;;;;;;5075899;28;20028;-54
2021/01/30 05:18:48;;;;;;;3.17;1.57;;;;;;;;;;5076005;28;20032;-53
2021/01/30 05:21:20;;;;;;;3.27;1.57;;;;;;;;;;5075986;28;20356;-54
2021/01/30 05:23:50;;;;;;;5.00;1.50;;;;;;;;;;5075813;28;20447;-54
2021/01/30 05:26:35;;;;;;;5.47;2.27;;;;;;;;;;5076146;28;20025;-54
2021/01/30 05:29:08;;;;;;;6.90;1.75;;;;;;;;;;5075818;28;20140;-54
2021/01/30 05:31:53;;;;;;;5.07;1.53;;;;;;;;;;5075843;28;20083;-54
2021/01/30 05:34:29;;;;;;;6.38;1.90;;;;;;;;;;5075835;28;20613;-54
2021/01/30 05:36:59;;;;;;;3.60;1.90;;;;;;;;;;5075612;28;20059;-54
2021/01/30 05:39:30;;;;;;;5.23;1.40;;;;;;;;;;5075629;28;20028;-55
2021/01/30 05:41:57;;;;;;;2.47;1.23;;;;;;;;;;5075137;28;20025;-54
2021/01/30 05:44:31;;;;;;;5.17;1.60;;;;;;;;;;5074971;28;20442;-54
2021/01/30 05:46:58;;;;;;;3.73;1.70;;;;;;;;;;5075657;28;20036;-55
2021/01/30 05:49:32;;;;;;;7.90;1.80;;;;;;;;;;5075092;28;20043;-54
2021/01/30 05:52:05;;;;;;;4.13;1.70;;;;;;;;;;5075664;28;20066;-54
2021/01/30 05:54:31;;;;;;;3.43;1.63;;;;;;;;;;5075378;28;20032;-54
2021/01/30 05:56:58;;;;;;;6.33;2.23;;;;;;;;;;5075351;28;20028;-54
2021/01/30 05:59:27;;;;;;;11.37;1.70;;;;;;;;;;5075221;28;20414;-54
2021/01/30 06:02:11;;;;;;;4.20;1.60;;;;;;;;;;5075283;28;20032;-54
2021/01/30 06:04:38;;;;;;;5.80;1.77;;;;;;;;;;5075077;28;20561;-54
2021/01/30 06:07:06;;;;;;;4.80;1.50;;;;;;;;;;5075089;28;20025;-54
2021/01/30 06:09:38;;;;;;;9.40;2.03;;;;;;;;;;5074955;28;20035;-54
2021/01/30 06:12:23;;;;;;;2.83;1.30;;;;;;;;;;5074966;28;20095;-54
2021/01/30 06:14:50;;;;;;;4.57;1.40;;;;;;;;;;5056961;28;20483;-54
2021/01/30 06:17:23;;;;;;;7.27;1.50;;;;;;;;;;5075003;28;20107;-54
2021/01/30 06:20:05;;;;;;;2.90;1.40;;;;;;;;;;5073665;28;20253;-54
2021/01/30 06:22:32;;;;;;;5.40;1.53;;;;;;;;;;5074890;28;20037;-54
2021/01/30 06:24:59;;;;;;;2.77;1.30;;;;;;;;;;5074650;28;20325;-54
2021/01/30 06:27:31;;;;;;;3.67;1.73;;;;;;;;;;5074749;28;20253;-54
2021/01/30 06:30:03;;;;;;;2.43;1.30;;;;;;;;;;5074837;28;20909;-55
2021/01/30 06:32:42;;;;;;;5.40;1.53;;;;;;;;;;5074703;28;20269;-54
2021/01/30 06:35:11;;;;;;;3.83;1.73;;;;;;;;;;5074443;28;20247;-54
2021/01/30 06:37:41;;;;;;;4.00;1.57;;;;;;;;;;5074487;28;20257;-54
2021/01/30 06:40:22;;;;;;;2.80;1.37;;;;;;;;;;5074351;28;20253;-54
2021/01/30 06:42:51;;;;;;;6.57;1.90;;;;;;;;;;5074485;28;20340;-54
2021/01/30 06:45:24;;;;;;;6.80;1.60;;;;;;;;;;5074413;28;20245;-54
2021/01/30 06:47:51;;;;;;;4.80;1.30;;;;;;;;;;5074240;28;20774;-54
2021/01/30 06:50:38;;;;;;;3.07;1.37;;;;;;;;;;5074191;28;20311;-54
2021/01/30 06:53:16;;;;;;;3.10;1.30;;;;;;;;;;5074275;28;20577;-54
2021/01/30 06:55:43;;;;;;;4.30;1.53;;;;;;;;;;5074090;28;20261;-54
2021/01/30 06:58:12;;;;;;;2.80;1.43;;;;;;;;;;5074192;28;20820;-54
2021/01/30 07:00:39;;;;;;;3.83;1.53;;;;;;;;;;5073971;28;20815;-54
2021/01/30 07:03:08;;;;;;;6.57;1.13;;;;;;;;;;5074002;28;20659;-54
2021/01/30 07:05:46;;;;;;;3.83;1.50;;;;;;;;;;5073934;28;20288;-54
2021/01/30 07:08:31;;;;;;;6.57;1.30;;;;;;;;;;5073981;28;20311;-54
2021/01/30 07:11:17;;;;;;;2.88;1.50;;;;;;;;;;5073804;28;20339;-54
2021/01/30 07:14:03;;;;;;;7.10;1.70;;;;;;;;;;5073324;28;20558;-54
2021/01/30 07:16:41;;;;;;;3.45;1.60;;;;;;;;;;5073732;28;20283;-54
2021/01/30 07:19:19;;;;;;;3.97;1.83;;;;;;;;;;5073659;28;20495;-54
2021/01/30 07:21:48;;;;;;;2.13;1.07;;;;;;;;;;5073571;28;20245;-54
2021/01/30 07:24:17;;;;;;;2.60;1.30;;;;;;;;;;5073512;28;20336;-54
2021/01/30 07:26:53;;;;;;;2.57;1.13;;;;;;;;;;5073469;28;20249;-54
2021/01/30 07:29:19;;;;;;;;;;;;;;;;;;5073961;28;20297;-54
2021/01/30 07:31:58;;;;;;;5.00;1.60;;;;;;;;;;5073436;28;19911;-54
2021/01/30 07:34:31;;;;;;;4.73;1.37;;;;;;;;;;5073410;28;20249;-54
2021/01/30 07:37:01;;;;;;;4.33;1.50;;;;;;;;;;5073477;28;20310;-54
2021/01/30 07:39:32;;;;;;;3.60;1.20;;;;;;;;;;5073247;28;20310;-54
2021/01/30 07:42:03;;;;;;;3.80;1.97;;;;;;;;;;5073639;28;20789;-54
2021/01/30 07:44:32;;;;;;;2.77;1.40;;;;;;;;;;5073256;28;20258;-54
2021/01/30 07:47:14;;;;;;;3.30;1.40;;;;;;;;;;5073155;28;20318;-54
2021/01/30 07:49:43;;;;;;;2.97;1.47;;;;;;;;;;5073169;28;20285;-54
2021/01/30 07:52:11;;;;;;;3.17;1.20;;;;;;;;;;5073237;28;20242;-54
2021/01/30 07:54:48;;;;;;;4.00;1.27;;;;;;;;;;5073216;28;20254;-54
2021/01/30 07:57:15;;;;;;;5.10;1.47;;;;;;;;;;5073017;28;20246;-54
2021/01/30 07:59:46;;;;;;;4.27;1.27;;;;;;;;;;5072892;28;20315;-54
2021/01/30 08:02:37;;;;;;;2.13;1.27;;;;;;;;;;5072967;28;20614;-54
2021/01/30 08:05:13;;;;;;;1.23;0.77;;;;;;;;;;5072873;28;20344;-54
2021/01/30 08:07:45;;;;;;;2.37;1.10;;;;;;;;;;5072932;28;20752;-54
2021/01/30 08:10:35;;;;;;;2.37;1.20;;;;;;;;;;5072851;28;20301;-54
2021/01/30 08:13:05;;;;;;;2.53;1.30;;;;;;;;;;5072926;28;20268;-54
2021/01/30 08:15:37;;;;;;;3.70;1.17;;;;;;;;;;5072782;28;20248;-54
2021/01/30 08:18:04;;;;;;;2.83;1.07;;;;;;;;;;5072840;28;20596;-54
2021/01/30 08:20:31;;;;;;;2.57;1.10;;;;;;;;;;5072590;28;20281;-54
2021/01/30 08:22:57;;;;;;;2.73;1.30;;;;;;;;;;5072631;28;20249;-54
2021/01/30 08:25:31;;;;;;;2.17;1.10;;;;;;;;;;5073085;28;20249;-54
2021/01/30 08:28:02;;;;;;;2.83;1.40;;;;;;;;;;5072525;28;20250;-54
2021/01/30 08:30:30;;;;;;;1.93;1.10;;;;;;;;;;5072901;28;20333;-54
2021/01/30 08:33:01;;;;;;;2.10;1.20;;;;;;;;;;5072603;28;20246;-54
2021/01/30 08:35:28;;;;;;;2.80;1.10;;;;;;;;;;5072606;28;20266;-54
2021/01/30 08:38:04;;;;;;;4.27;1.23;;;;;;;;;;5072644;28;20245;-54
2021/01/30 08:40:42;;;;;;;3.57;1.27;;;;;;;;;;5072385;28;20246;-54
2021/01/30 08:43:14;;;;;;;6.90;1.20;;;;;;;;;;5075474;28;20249;-54
2021/01/30 08:45:41;;;;;;;3.57;1.33;;;;;;;;;;5076521;28;20253;-54
2021/01/30 08:48:17;;;;;;;4.07;1.27;;;;;;;;;;5076560;28;20787;-54
2021/01/30 08:50:48;;;;;;;2.93;1.10;;;;;;;;;;5076528;28;20293;-54
2021/01/30 08:53:16;;;;;;;2.07;1.17;;;;;;;;;;5076488;28;20249;-54
2021/01/30 08:55:46;;;;;;;2.57;1.13;;;;;;;;;;5076448;28;20257;-54
2021/01/30 08:58:32;;;;;;;1.63;1.00;;;;;;;;;;5076539;28;20253;-54
2021/01/30 09:01:31;;;;;;;5.60;1.10;;;;;;;;;;5059613;28;20284;-54
2021/01/30 09:03:59;;;;;;;1.97;1.10;;;;;;;;;;5076251;28;20258;-54
2021/01/30 09:06:41;;;;;;;1.80;1.10;;;;;;;;;;5076267;28;20284;-54
2021/01/30 09:09:10;;;;;;;2.37;1.17;;;;;;;;;;5076223;28;20337;-54
2021/01/30 09:11:46;;;;;;;2.97;1.10;;;;;;;;;;5076094;28;20285;-54
2021/01/30 09:14:19;;;;;;;1.43;0.90;;;;;;;;;;5076000;28;20261;-54
2021/01/30 09:16:58;;;;;;;2.10;1.10;;;;;;;;;;5076097;28;20260;-54
2021/01/30 09:19:34;;;;;;;2.37;0.80;;;;;;;;;;5076137;28;20269;-54
2021/01/30 09:22:21;;;;;;;2.53;1.03;;;;;;;;;;5075837;28;20748;-54
2021/01/30 09:24:57;;;;;;;2.13;1.00;;;;;;;;;;5059013;28;20257;-54
2021/01/30 09:27:26;;;;;;;2.23;0.83;;;;;;;;;;5075888;28;20751;-54
2021/01/30 09:29:55;;;;;;;4.63;1.30;;;;;;;;;;5076000;28;20761;-54
2021/01/30 09:32:27;;;;;;;1.53;0.90;;;;;;;;;;5075715;28;20840;-54
2021/01/30 09:34:58;;;;;;;3.13;1.00;;;;;;;;;;5075602;28;20250;-54
2021/01/30 09:37:35;;;;;;;1.90;1.00;;;;;;;;;;5075665;28;20253;-54
2021/01/30 09:40:19;;;;;;;3.50;1.30;;;;;;;;;;5075689;28;20912;-54
2021/01/30 09:42:56;;;;;;;6.77;1.30;;;;;;;;;;5075531;28;20809;-54
2021/01/30 09:45:22;;;;;;;2.03;1.07;;;;;;;;;;5075669;28;20242;-54
2021/01/30 09:47:51;;;;;;;1.40;0.90;;;;;;;;;;5075585;28;20249;-54
2021/01/30 09:50:30;;;;;;;1.43;0.90;;;;;;;;;;5075302;28;20281;-54
2021/01/30 09:52:59;;;;;;;1.90;1.07;;;;;;;;;;5075398;28;20277;-54
2021/01/30 09:55:27;;;;;;;2.50;1.20;;;;;;;;;;5075404;28;20249;-54
2021/01/30 09:58:13;;;;;;;3.07;0.90;;;;;;;;;;5075229;28;20663;-54
2021/01/30 10:00:42;;;;;;;1.63;1.00;;;;;;;;;;5074574;28;20262;-54
2021/01/30 10:03:11;;;;;;;4.43;0.90;;;;;;;;;;5075353;28;20261;-54
2021/01/30 10:05:38;;;;;;;1.37;0.80;;;;;;;;;;5075017;28;20296;-54
2021/01/30 10:08:15;;;;;;;1.57;0.83;;;;;;;;;;5075110;28;20739;-54
2021/01/30 10:10:41;;;;;;;2.43;1.10;;;;;;;;;;5075053;28;20751;-54
2021/01/30 10:13:12;;;;;;;2.33;1.00;;;;;;;;;;5075054;28;20245;-54
2021/01/30 10:15:39;;;;;;;3.20;0.93;;;;;;;;;;5074946;28;20600;-54
2021/01/30 10:18:26;;;;;;;2.20;1.20;;;;;;;;;;5074886;28;20764;-54
2021/01/30 10:20:56;;;;;;;2.20;0.90;;;;;;;;;;5056943;28;20782;-54
2021/01/30 10:23:36;;;;;;;2.47;1.30;;;;;;;;;;5074727;28;20312;-54
2021/01/30 10:26:22;;;;;;;2.43;1.00;;;;;;;;;;5074798;28;20273;-54
2021/01/30 10:28:51;;;;;;;2.23;1.03;;;;;;;;;;5074695;28;20245;-54
2021/01/30 10:31:37;;;;;;;1.50;0.80;;;;;;;;;;5074895;28;20297;-54
2021/01/30 10:34:08;;;;;;;5.93;1.10;;;;;;;;;;5074494;28;20620;-54
2021/01/30 10:36:38;;;;;;;3.70;1.00;;;;;;;;;;5074692;28;20025;-54
2021/01/30 10:39:05;;;;;;;2.17;1.20;;;;;;;;;;5074444;28;20661;-54
2021/01/30 10:41:33;;;;;;;3.10;1.03;;;;;;;;;;5056535;28;20763;-54
2021/01/30 10:44:05;;;;;;;1.53;0.80;;;;;;;;;;5074497;28;20261;-54
2021/01/30 10:46:43;;;;;;;1.03;0.90;;;;;;;;;;5074342;28;20246;-54
2021/01/30 10:49:21;;;;;;;2.23;1.10;;;;;;;;;;5074347;28;20260;-54
2021/01/30 10:51:49;;;;;;;1.07;0.77;;;;;;;;;;5074422;28;20253;-54
2021/01/30 10:54:23;;;;;;;3.67;0.97;;;;;;;;;;5074284;28;20253;-54
2021/01/30 10:57:08;;;;;;;2.17;1.15;;;;;;;;;;5074192;28;20279;-54
2021/01/30 10:59:44;;;;;;;2.23;1.00;;;;;;;;;;5074060;28;20036;-54
2021/01/30 11:02:29;;;;;;;3.23;1.17;;;;;;;;;;5074119;28;20683;-54
2021/01/30 11:05:06;;;;;;;1.40;0.70;;;;;;;;;;5073575;28;20581;-54
2021/01/30 11:07:52;;;;;;;2.13;0.90;;;;;;;;;;5074000;28;20025;-54
2021/01/30 11:10:18;;;;;;;;;;;;;;;;;;5074246;28;20281;-54
2021/01/30 11:12:45;;;;;;;1.33;0.70;;;;;;;;;;5073752;28;20472;-54
2021/01/30 11:15:22;;;;;;;1.50;0.90;;;;;;;;;;5073918;28;20319;-54
2021/01/30 11:17:50;;;;;;;1.77;0.70;;;;;;;;;;5073767;28;20299;-54
2021/01/30 11:20:35;;;;;;;2.37;0.90;;;;;;;;;;5073691;28;20253;-54
2021/01/30 11:23:05;;;;;;;2.33;1.08;;;;;;;;;;5073707;28;20254;-54
2021/01/30 11:25:41;;;;;;;1.53;0.93;;;;;;;;;;5073634;28;20036;-54
2021/01/30 11:28:09;;;;;;;1.87;1.00;;;;;;;;;;5073626;28;20291;-54
2021/01/30 11:30:44;;;;;;;4.20;1.00;;;;;;;;;;5073759;28;20366;-54
2021/01/30 11:33:14;;;;;;;3.60;1.07;;;;;;;;;;5073304;28;20253;-54
2021/01/30 11:35:51;;;;;;;1.43;0.90;;;;;;;;;;5073463;28;20249;-54
2021/01/30 11:38:19;;;;;;;1.20;0.80;;;;;;;;;;5073481;28;20249;-54
2021/01/30 11:40:47;;;;;;;1.63;0.90;;;;;;;;;;5073379;28;20265;-54
2021/01/30 11:43:14;;;;;;;1.60;0.90;;;;;;;;;;5073264;28;20257;-54
2021/01/30 11:45:41;;;;;;;1.20;0.80;;;;;;;;;;5073248;28;20253;-54
2021/01/30 11:48:08;;;;;;;1.17;0.90;;;;;;;;;;5073223;28;20314;-54
2021/01/30 11:50:34;;;;;;;4.00;1.00;;;;;;;;;;5073184;28;20293;-54
2021/01/30 11:53:07;;;;;;;1.27;0.70;;;;;;;;;;5073040;28;20543;-54
2021/01/30 11:55:34;;;;;;;1.10;0.80;;;;;;;;;;5073305;28;20340;-53
2021/01/30 11:58:01;;;;;;;1.93;0.90;;;;;;;;;;5073165;28;20253;-54
2021/01/30 12:00:28;;;;;;;1.60;0.83;;;;;;;;;;5073075;28;20324;-54
2021/01/30 12:02:55;;;;;;;1.00;0.60;;;;;;;;;;5072947;28;20746;-54
2021/01/30 12:05:22;;;;;;;2.10;0.90;;;;;;;;;;5072914;28;20647;-54
2021/01/30 12:07:49;;;;;;;2.27;0.90;;;;;;;;;;5072985;28;20242;-54
2021/01/30 12:10:15;;;;;;;5.20;0.83;;;;;;;;;;5072913;28;20349;-54
2021/01/30 12:12:42;;;;;;;1.40;0.73;;;;;;;;;;5072888;28;20257;-54
2021/01/30 12:15:09;;;;;;;2.10;0.87;;;;;;;;;;5072945;28;20249;-54
2021/01/30 12:17:38;;;;;;;2.13;1.03;;;;;;;;;;5053898;28;20265;-54
2021/01/30 12:20:10;;;;;;;2.33;1.00;;;;;;;;;;5072753;28;20249;-54
2021/01/30 12:22:37;;;;;;;2.20;0.97;;;;;;;;;;5072918;28;20286;-54
2021/01/30 12:25:05;;;;;;;4.40;1.17;;;;;;;;;;5072625;28;20676;-54
2021/01/30 12:27:32;;;;;;;1.73;0.97;;;;;;;;;;5072691;28;20258;-54
2021/01/30 12:29:58;;;;;;;2.40;0.93;;;;;;;;;;5072781;28;20289;-54
2021/01/30 12:32:25;;;;;;;1.90;0.97;;;;;;;;;;5072788;28;20254;-54
2021/01/30 12:34:52;;;;;;;1.97;1.03;;;;;;;;;;5072557;28;20295;-54
2021/01/30 12:37:19;;;;;;;1.83;0.97;;;;;;;;;;5072674;28;20338;-54
2021/01/30 12:39:47;;;;;;;6.20;2.00;;;;;;;;;;5072675;28;20249;-54
2021/01/30 12:42:14;;;;;;;1.60;0.90;;;;;;;;;;5072401;28;20396;-54
2021/01/30 12:44:40;;;;;;;4.83;1.23;;;;;;;;;;5072375;28;20650;-54
2021/01/30 12:47:07;;;;;;;1.67;0.90;;;;;;;;;;5072587;28;20285;-54
2021/01/30 12:49:34;;;;;;;1.97;0.97;;;;;;;;;;5072386;28;20292;-54
2021/01/30 12:52:01;;;;;;;2.30;1.20;;;;;;;;;;5072453;28;20257;-54
2021/01/30 12:54:27;;;;;;;2.47;1.00;;;;;;;;;;5072363;28;20604;-54
2021/01/30 12:56:54;;;;;;;2.67;1.20;;;;;;;;;;5072452;28;20620;-53
2021/01/30 12:59:21;;;;;;;1.73;1.07;;;;;;;;;;5072455;28;20364;-54
2021/01/30 13:01:48;;;;;;;1.83;1.07;;;;;;;;;;5072295;28;20249;-54
2021/01/30 13:04:15;;;;;;;1.47;0.90;;;;;;;;;;5072309;28;20249;-54
2021/01/30 13:06:41;;;;;;;1.23;0.80;;;;;;;;;;5072694;28;20307;-54
2021/01/30 13:09:08;;;;;;;4.47;0.93;;;;;;;;;;5072426;28;20257;-54
2021/01/30 13:11:35;;;;;;;1.97;1.07;;;;;;;;;;5072127;28;20273;-54
2021/01/30 13:14:02;;;;;;;1.90;0.80;;;;;;;;;;5072296;28;20257;-54
2021/01/30 13:16:28;;;;;;;2.10;1.10;;;;;;;;;;5072182;28;20350;-54
2021/01/30 13:18:55;;;;;;;2.97;1.00;;;;;;;;;;5072187;28;20744;-54
2021/01/30 13:21:22;;;;;;;2.37;1.10;;;;;;;;;;5072249;28;20624;-54
2021/01/30 13:23:50;;;;;;;1.43;0.80;;;;;;;;;;5072134;28;20748;-54
2021/01/30 13:26:17;;;;;;;2.20;1.07;;;;;;;;;;5072079;28;20249;-54
2021/01/30 13:28:43;;;;;;;4.57;1.10;;;;;;;;;;5074056;28;20254;-54
2021/01/30 13:31:10;;;;;;;4.40;1.17;;;;;;;;;;5058145;28;20760;-54
2021/01/30 13:33:37;;;;;;;6.70;1.60;;;;;;;;;;5075675;28;20284;-54
2021/01/30 13:36:04;;;;;;;2.63;1.20;;;;;;;;;;5075693;28;20261;-54
2021/01/30 13:38:31;;;;;;;8.93;1.40;;;;;;;;;;5075603;28;20253;-54
2021/01/30 13:40:57;;;;;;;2.13;1.10;;;;;;;;;;5075493;28;20608;-54
2021/01/30 13:43:24;;;;;;;4.60;1.10;;;;;;;;;;5075389;28;20336;-54
2021/01/30 13:45:51;;;;;;;1.90;1.03;;;;;;;;;;5075554;28;20729;-54
2021/01/30 13:48:18;;;;;;;6.63;2.07;;;;;;;;;;5075541;28;20250;-54
2021/01/30 13:50:46;;;;;;;10.67;3.97;;;;;;;;;;5075455;28;20288;-54
2021/01/30 13:53:13;;;;;;;8.50;3.60;;;;;;;;;;5075295;28;20245;-54
2021/01/30 13:55:40;;;;;;;21.90;5.60;;;;;;;;;;5075324;28;20280;-54
2021/01/30 13:58:07;;;;;;;4.30;2.37;;;;;;;;;;5075405;28;20264;-54
2021/01/30 14:00:33;;;;;;;2.80;1.53;;;;;;;;;;5075218;28;20279;-54
2021/01/30 14:03:00;;;;;;;3.07;1.40;;;;;;;;;;5075537;28;20291;-54
2021/01/30 14:05:27;;;;;;;2.53;1.20;;;;;;;;;;5075184;28;20303;-54
2021/01/30 14:07:58;;;;;;;5.50;1.33;;;;;;;;;;5075196;28;20262;-54
2021/01/30 14:10:25;;;;;;;3.23;1.50;;;;;;;;;;5074881;28;20293;-54
2021/01/30 14:12:52;;;;;;;5.40;1.90;;;;;;;;;;5074972;28;20867;-54
2021/01/30 14:15:19;;;;;;;5.33;1.70;;;;;;;;;;5075204;28;20249;-54
2021/01/30 14:17:46;;;;;;;7.57;1.93;;;;;;;;;;5074808;28;20269;-55
2021/01/30 14:20:13;;;;;;;5.13;2.30;;;;;;;;;;5075022;28;20252;-54
2021/01/30 14:22:39;;;;;;;5.30;2.80;;;;;;;;;;5074832;28;20306;-54
2021/01/30 14:25:07;;;;;;;5.97;2.83;;;;;;;;;;5074634;28;20249;-55
2021/01/30 14:27:34;;;;;;;6.67;2.73;;;;;;;;;;5074619;28;20253;-55
2021/01/30 14:30:01;;;;;;;8.87;3.73;;;;;;;;;;5074812;28;20290;-55
2021/01/30 14:32:28;;;;;;;9.50;3.77;;;;;;;;;;5074709;28;20264;-54
2021/01/30 14:34:55;;;;;;;10.33;4.20;;;;;;;;;;5074690;28;20256;-55
2021/01/30 14:37:22;;;;;;;12.63;5.57;;;;;;;;;;5074550;28;20329;-55
2021/01/30 14:39:50;;;;;;;6.10;3.70;;;;;;;;;;5073554;28;20491;-54
2021/01/30 14:42:17;;;;;;;9.17;3.73;;;;;;;;;;5074436;28;20383;-55
2021/01/30 14:44:47;;;;;;;10.57;3.80;;;;;;;;;;5074509;28;20104;-55
2021/01/30 14:47:14;;;;;;;5.20;2.63;;;;;;;;;;5074505;28;20040;-55
2021/01/30 14:49:41;;;;;;;5.73;3.10;;;;;;;;;;5074241;28;20398;-55
2021/01/30 14:52:08;;;;;;;7.30;3.10;;;;;;;;;;5074268;28;20031;-55
2021/01/30 14:54:35;;;;;;;6.63;2.87;;;;;;;;;;5074160;28;20020;-55
2021/01/30 14:57:01;;;;;;;7.80;2.73;;;;;;;;;;5074203;28;20021;-55
2021/01/30 14:59:28;;;;;;;4.87;1.87;;;;;;;;;;5074061;28;20020;-55
2021/01/30 15:01:56;;;;;;;4.90;1.90;;;;;;;;;;5074216;28;20024;-55
2021/01/30 15:04:24;;;;;;;6.37;2.80;;;;;;;;;;5073931;28;20032;-55